Time;durP1;ratioP1;P1;durP2;ratioP2;P2;SDS_P1;SDS_P2;PMS_P1;PMS_P2;Temp;Humidity;BMP_temperature;BMP_pressure;BME280_temperature;BME280_humidity;BME280_pressure;Samples;Min_cycle;Max_cycle;Signal;HPM_P1;HPM_P2
2021/05/30 00:01:33;;;;;;;;;;;13.20;99.90;;;;;;5096095;28;19914;-70
2021/05/30 00:04:00;;;;;;;;;;;13.20;99.90;;;;;;5096120;28;19916;-71
2021/05/30 00:06:29;;;;;;;;;;;13.30;99.90;;;;;;5096355;28;20072;-72
2021/05/30 00:08:56;;;;;;;;;;;13.40;99.90;;;;;;5096050;28;19908;-71
2021/05/30 00:11:23;;;;;;;;;;;13.40;99.90;;;;;;5096074;28;19908;-72
2021/05/30 00:13:52;;;;;;;;;;;13.50;99.90;;;;;;5096164;28;20382;-71
2021/05/30 00:16:18;;;;;;;;;;;13.60;99.90;;;;;;5095986;28;19944;-71
2021/05/30 00:18:45;;;;;;;;;;;13.70;99.90;;;;;;5095525;28;19920;-71
2021/05/30 00:21:12;;;;;;;;;;;13.60;99.90;;;;;;5106756;28;19909;-72
2021/05/30 00:23:38;;;;;;;;;;;13.70;99.90;;;;;;5110625;28;19908;-71
2021/05/30 00:26:05;;;;;;;;;;;13.70;99.90;;;;;;5111343;28;19936;-70
2021/05/30 00:28:32;;;;;;;;;;;13.70;99.90;;;;;;5110850;28;20002;-70
2021/05/30 00:30:59;;;;;;;;;;;13.70;99.90;;;;;;5111304;28;19922;-70
2021/05/30 00:33:25;;;;;;;;;;;13.80;99.90;;;;;;5109391;28;20009;-72
2021/05/30 00:35:52;;;;;;;;;;;13.70;99.90;;;;;;5108667;28;19908;-72
2021/05/30 00:38:19;;;;;;;;;;;13.80;99.90;;;;;;5100114;28;19961;-70
2021/05/30 00:40:46;;;;;;;;;;;13.90;99.90;;;;;;5081904;28;19951;-71
2021/05/30 00:43:12;;;;;;;;;;;14.00;99.90;;;;;;5075543;28;19927;-71
2021/05/30 00:45:39;;;;;;;;;;;14.00;99.90;;;;;;5074783;28;19909;-70
2021/05/30 00:48:06;;;;;;;;;;;13.90;99.90;;;;;;5075116;28;19995;-71
2021/05/30 00:50:32;;;;;;;;;;;13.80;99.90;;;;;;5075433;28;19915;-71
2021/05/30 00:52:59;;;;;;;;;;;13.80;99.90;;;;;;5075249;28;19995;-69
2021/05/30 00:55:26;;;;;;;;;;;13.90;99.90;;;;;;5074642;28;19908;-70
2021/05/30 00:57:52;;;;;;;;;;;13.90;99.90;;;;;;5075077;28;20007;-68
2021/05/30 01:00:19;;;;;;;;;;;13.90;99.90;;;;;;5074775;28;20003;-68
2021/05/30 01:02:46;;;;;;;;;;;13.90;99.90;;;;;;5074760;28;19915;-70
2021/05/30 01:05:13;;;;;;;;;;;14.00;99.90;;;;;;5074824;28;19962;-70
2021/05/30 01:07:41;;;;;;;;;;;14.10;99.90;;;;;;5074969;28;19962;-67
2021/05/30 01:10:26;;;;;;;;;;;14.30;99.90;;;;;;5074460;28;19909;-68
2021/05/30 01:12:52;;;;;;;;;;;14.60;99.90;;;;;;5074591;28;20306;-69
2021/05/30 01:15:19;;;;;;;;;;;14.80;99.90;;;;;;5075019;28;19908;-69
2021/05/30 01:17:50;;;;;;;;;;;14.80;99.90;;;;;;5074487;28;20003;-69
2021/05/30 01:20:17;;;;;;;;;;;14.90;99.90;;;;;;5074727;28;19916;-72
2021/05/30 01:22:45;;;;;;;;;;;14.80;99.90;;;;;;5074503;28;19944;-69
2021/05/30 01:25:13;;;;;;;;;;;14.60;99.90;;;;;;5073792;28;19908;-70
2021/05/30 01:27:39;;;;;;;;;;;14.50;99.90;;;;;;5074237;28;19909;-71
2021/05/30 01:30:07;;;;;;;;;;;14.60;99.90;;;;;;5074192;28;19909;-70
2021/05/30 01:32:34;;;;;;;;;;;14.70;99.90;;;;;;5074161;28;19909;-69
2021/05/30 01:35:00;;;;;;;;;;;14.80;99.90;;;;;;5073970;28;19908;-69
2021/05/30 01:37:27;;;;;;;;;;;14.90;99.90;;;;;;5074246;28;20012;-71
2021/05/30 01:39:54;;;;;;;;;;;14.90;99.90;;;;;;5073534;28;19916;-70
2021/05/30 01:42:20;;;;;;;;;;;15.00;99.90;;;;;;5074123;28;19931;-72
2021/05/30 01:44:47;;;;;;;;;;;15.00;99.90;;;;;;5073739;28;20070;-71
2021/05/30 01:47:13;;;;;;;;;;;14.90;99.90;;;;;;5073765;28;20519;-70
2021/05/30 01:49:41;;;;;;;;;;;14.80;99.90;;;;;;5077729;28;19909;-70
2021/05/30 01:52:08;;;;;;;;;;;14.80;99.90;;;;;;5088345;28;19947;-71
2021/05/30 01:54:36;;;;;;;;;;;14.70;99.90;;;;;;5083403;28;19908;-72
2021/05/30 01:57:08;;;;;;;;;;;14.70;99.90;;;;;;5076788;28;20394;-71
2021/05/30 01:59:35;;;;;;;;;;;14.60;99.90;;;;;;5076727;28;19916;-71
2021/05/30 02:02:02;;;;;;;;;;;14.60;99.90;;;;;;5079959;28;19999;-71
2021/05/30 02:04:30;;;;;;;;;;;14.60;99.90;;;;;;5076217;28;19966;-71
2021/05/30 02:06:58;;;;;;;;;;;14.60;99.90;;;;;;5074482;28;20270;-72
2021/05/30 02:09:25;;;;;;;;;;;14.70;99.90;;;;;;5072237;28;19958;-72
2021/05/30 02:11:52;;;;;;;;;;;14.80;99.90;;;;;;5073881;28;19908;-71
2021/05/30 02:14:19;;;;;;;;;;;14.80;99.90;;;;;;5073943;28;19912;-70
2021/05/30 02:16:46;;;;;;;;;;;14.80;99.90;;;;;;5073365;28;20380;-69
2021/05/30 02:19:13;;;;;;;;;;;14.80;99.90;;;;;;5073389;28;19962;-70
2021/05/30 02:21:40;;;;;;;;;;;14.80;99.90;;;;;;5073322;28;19954;-69
2021/05/30 02:24:07;;;;;;;;;;;14.80;99.90;;;;;;5072643;28;19961;-70
2021/05/30 02:26:33;;;;;;;;;;;14.80;99.90;;;;;;5073433;28;19908;-70
2021/05/30 02:29:00;;;;;;;;;;;14.70;99.90;;;;;;5073129;28;19951;-71
2021/05/30 02:31:27;;;;;;;;;;;14.60;99.90;;;;;;5073420;28;19909;-70
2021/05/30 02:33:53;;;;;;;;;;;14.60;99.90;;;;;;5073138;28;19912;-70
2021/05/30 02:36:20;;;;;;;;;;;14.70;99.90;;;;;;5073303;28;20343;-70
2021/05/30 02:38:47;;;;;;;;;;;14.60;99.90;;;;;;5072276;28;19978;-72
2021/05/30 02:41:14;;;;;;;;;;;14.60;99.90;;;;;;5073068;28;19995;-70
2021/05/30 02:43:41;;;;;;;;;;;14.60;99.90;;;;;;5073029;28;19920;-69
2021/05/30 02:46:07;;;;;;;;;;;14.60;99.90;;;;;;5073085;28;20259;-69
2021/05/30 02:48:36;;;;;;;;;;;14.60;99.90;;;;;;5072940;28;20382;-69
2021/05/30 02:51:06;;;;;;;;;;;14.60;99.90;;;;;;5072776;28;20029;-70
2021/05/30 02:53:33;;;;;;;;;;;14.60;99.90;;;;;;5072532;28;19909;-69
2021/05/30 02:56:00;;;;;;;;;;;14.60;99.90;;;;;;5072964;28;20050;-68
2021/05/30 02:58:29;;;;;;;;;;;14.60;99.90;;;;;;5072933;28;20012;-68
2021/05/30 03:00:56;;;;;;;;;;;14.70;99.90;;;;;;5072554;28;19916;-69
2021/05/30 03:03:23;;;;;;;;;;;14.70;99.90;;;;;;5072720;28;20271;-69
2021/05/30 03:05:50;;;;;;;;;;;14.60;99.90;;;;;;5072901;28;20299;-71
2021/05/30 03:08:16;;;;;;;;;;;14.70;99.90;;;;;;5072137;28;19908;-70
2021/05/30 03:10:43;;;;;;;;;;;14.60;99.90;;;;;;5076485;28;19908;-69
2021/05/30 03:13:10;;;;;;;;;;;14.60;99.90;;;;;;5076997;28;20255;-70
2021/05/30 03:15:38;;;;;;;;;;;14.30;99.90;;;;;;5076749;28;20389;-69
2021/05/30 03:18:06;;;;;;;;;;;14.00;99.90;;;;;;5076727;28;19912;-70
2021/05/30 03:20:33;;;;;;;;;;;14.00;99.90;;;;;;5076916;28;20272;-68
2021/05/30 03:22:59;;;;;;;;;;;13.80;99.90;;;;;;5075907;28;20330;-70
2021/05/30 03:25:26;;;;;;;;;;;13.80;99.90;;;;;;5076455;28;19955;-70
2021/05/30 03:27:53;;;;;;;;;;;13.90;99.90;;;;;;5076788;28;19909;-69
2021/05/30 03:30:19;;;;;;;;;;;14.00;99.90;;;;;;5076547;28;19919;-70
2021/05/30 03:32:46;;;;;;;;;;;14.10;99.90;;;;;;5076488;28;20394;-72
2021/05/30 03:35:13;;;;;;;;;;;14.20;99.90;;;;;;5076771;28;20346;-72
2021/05/30 03:37:40;;;;;;;;;;;14.20;99.90;;;;;;5078414;28;19965;-71
2021/05/30 03:40:24;;;;;;;;;;;14.20;99.90;;;;;;5084647;28;19947;-71
2021/05/30 03:42:52;;;;;;;;;;;14.20;99.90;;;;;;5075563;28;19988;-71
2021/05/30 03:45:22;;;;;;;;;;;14.30;99.90;;;;;;5075879;28;20263;-70
2021/05/30 03:47:49;;;;;;;;;;;14.30;99.90;;;;;;5075819;28;20394;-70
2021/05/30 03:50:17;;;;;;;;;;;14.20;99.90;;;;;;5075821;28;20370;-71
2021/05/30 03:52:43;;;;;;;;;;;14.10;99.90;;;;;;5075887;28;19943;-69
2021/05/30 03:55:10;;;;;;;;;;;13.90;99.90;;;;;;5076551;28;19921;-70
2021/05/30 03:57:38;;;;;;;;;;;13.90;99.90;;;;;;5076338;28;19916;-71
2021/05/30 04:00:05;;;;;;;;;;;13.80;99.90;;;;;;5078163;28;19919;-71
2021/05/30 04:02:32;;;;;;;;;;;13.90;99.90;;;;;;5096388;28;20293;-69
2021/05/30 04:04:59;;;;;;;;;;;13.90;99.90;;;;;;5094746;28;19936;-69
2021/05/30 04:07:26;;;;;;;;;;;13.90;99.90;;;;;;5097583;28;20254;-71
2021/05/30 04:09:52;;;;;;;;;;;13.90;99.90;;;;;;5096609;28;19916;-70
2021/05/30 04:12:19;;;;;;;;;;;13.90;99.90;;;;;;5096564;28;19954;-70
2021/05/30 04:14:46;;;;;;;;;;;13.90;99.90;;;;;;5097578;28;19912;-70
2021/05/30 04:17:12;;;;;;;;;;;14.10;99.90;;;;;;5097268;28;19963;-70
2021/05/30 04:19:39;;;;;;;;;;;14.10;99.90;;;;;;5097139;28;19916;-71
2021/05/30 04:22:06;;;;;;;;;;;14.10;99.90;;;;;;5094457;28;19915;-71
2021/05/30 04:24:32;;;;;;;;;;;14.10;99.90;;;;;;5096853;28;19982;-69
2021/05/30 04:26:59;;;;;;;;;;;14.10;99.90;;;;;;5097254;28;20350;-70
2021/05/30 04:29:25;;;;;;;;;;;14.10;99.90;;;;;;5095718;28;19908;-70
2021/05/30 04:31:55;;;;;;;;;;;14.00;99.90;;;;;;5095565;28;19909;-70
2021/05/30 04:34:22;;;;;;;;;;;13.90;99.90;;;;;;5095241;28;20420;-71
2021/05/30 04:36:48;;;;;;;;;;;13.90;99.90;;;;;;5095188;28;19917;-71
2021/05/30 04:39:15;;;;;;;;;;;13.80;99.90;;;;;;5095172;28;19960;-70
2021/05/30 04:41:42;;;;;;;;;;;13.80;99.90;;;;;;5095169;28;19912;-69
2021/05/30 04:44:08;;;;;;;;;;;13.70;99.90;;;;;;5093864;28;21296;-71
2021/05/30 04:46:35;;;;;;;;;;;13.70;99.90;;;;;;5095400;28;19930;-70
2021/05/30 04:49:04;;;;;;;;;;;13.60;99.90;;;;;;5094865;28;20265;-73
2021/05/30 04:51:31;;;;;;;;;;;13.60;99.90;;;;;;5094852;28;19962;-70
2021/05/30 04:53:59;;;;;;;;;;;13.60;99.90;;;;;;5095080;28;19981;-70
2021/05/30 04:56:25;;;;;;;;;;;13.70;99.90;;;;;;5095206;28;19945;-71
2021/05/30 04:58:52;;;;;;;;;;;13.80;99.90;;;;;;5095011;28;19981;-69
2021/05/30 05:01:19;;;;;;;;;;;13.90;99.90;;;;;;5095100;28;19954;-70
2021/05/30 05:03:46;;;;;;;;;;;13.90;99.90;;;;;;5095120;28;19947;-68
2021/05/30 05:06:12;;;;;;;;;;;13.90;99.90;;;;;;5094988;28;19912;-72
2021/05/30 05:08:39;;;;;;;;;;;13.90;99.90;;;;;;5094767;28;19931;-73
2021/05/30 05:11:08;;;;;;;;;;;13.90;99.90;;;;;;5094476;28;19919;-67
2021/05/30 05:13:34;;;;;;;;;;;13.90;99.90;;;;;;5094828;28;19930;-70
2021/05/30 05:16:01;;;;;;;;;;;13.90;99.90;;;;;;5093633;28;19951;-72
2021/05/30 05:18:30;;;;;;;;;;;13.90;99.90;;;;;;5094066;28;19969;-72
2021/05/30 05:20:58;;;;;;;;;;;13.90;99.90;;;;;;5093629;28;19913;-66
2021/05/30 05:23:25;;;;;;;;;;;13.90;99.90;;;;;;5093722;28;19916;-69
2021/05/30 05:25:55;;;;;;;;;;;13.90;99.90;;;;;;5093794;28;19915;-70
2021/05/30 05:28:23;;;;;;;;;;;13.80;99.90;;;;;;5093613;28;19908;-69
2021/05/30 05:30:50;;;;;;;;;;;13.90;99.90;;;;;;5093350;28;19914;-70
2021/05/30 05:33:17;;;;;;;;;;;13.90;99.90;;;;;;5094140;28;19908;-71
2021/05/30 05:35:43;;;;;;;;;;;13.90;99.90;;;;;;5094858;28;20302;-69
2021/05/30 05:38:10;;;;;;;;;;;13.90;99.90;;;;;;5094541;28;20015;-71
2021/05/30 05:40:37;;;;;;;;;;;13.90;99.90;;;;;;5094495;28;20355;-68
2021/05/30 05:43:05;;;;;;;;;;;13.90;99.90;;;;;;5094099;28;20290;-70
2021/05/30 05:45:32;;;;;;;;;;;13.90;99.90;;;;;;5094270;28;19915;-70
2021/05/30 05:47:59;;;;;;;;;;;13.90;99.90;;;;;;5094348;28;19915;-71
2021/05/30 05:50:26;;;;;;;;;;;13.80;99.90;;;;;;5094350;28;20269;-68
2021/05/30 05:52:53;;;;;;;;;;;13.80;99.90;;;;;;5094141;28;19908;-71
2021/05/30 05:55:21;;;;;;;;;;;13.90;99.90;;;;;;5094071;28;19909;-69
2021/05/30 05:57:49;;;;;;;;;;;13.90;99.90;;;;;;5093835;28;19912;-69
2021/05/30 06:00:20;;;;;;;;;;;13.90;99.90;;;;;;5093825;28;19912;-70
2021/05/30 06:02:50;;;;;;;;;;;13.90;99.90;;;;;;5093921;28;20282;-72
2021/05/30 06:05:18;;;;;;;;;;;13.90;99.90;;;;;;5094132;28;19998;-70
2021/05/30 06:07:45;;;;;;;;;;;13.90;99.90;;;;;;5094092;28;19916;-71
2021/05/30 06:10:13;;;;;;;;;;;13.90;99.90;;;;;;5094010;28;19915;-69
2021/05/30 06:12:39;;;;;;;;;;;13.90;99.90;;;;;;5093697;28;19912;-69
2021/05/30 06:15:07;;;;;;;;;;;13.80;99.90;;;;;;5093546;28;20335;-71
2021/05/30 06:17:34;;;;;;;;;;;13.80;99.90;;;;;;5092461;28;19911;-72
2021/05/30 06:20:00;;;;;;;;;;;13.80;99.90;;;;;;5092548;28;19923;-71
2021/05/30 06:22:27;;;;;;;;;;;13.90;99.90;;;;;;5093819;28;19954;-72
2021/05/30 06:24:54;;;;;;;;;;;13.90;99.90;;;;;;5093383;28;19962;-70
2021/05/30 06:27:21;;;;;;;;;;;13.90;99.90;;;;;;5093563;28;20003;-71
2021/05/30 06:29:48;;;;;;;;;;;13.90;99.90;;;;;;5093603;28;19912;-72
2021/05/30 06:32:14;;;;;;;;;;;13.90;99.90;;;;;;5093510;28;19943;-72
2021/05/30 06:34:41;;;;;;;;;;;13.90;99.90;;;;;;5093652;28;20282;-72
2021/05/30 06:37:08;;;;;;;;;;;13.90;99.90;;;;;;5093377;28;19919;-69
2021/05/30 06:39:34;;;;;;;;;;;13.90;99.90;;;;;;5092053;28;20389;-72
2021/05/30 06:42:01;;;;;;;;;;;13.90;99.90;;;;;;5093307;28;19915;-74
2021/05/30 06:44:28;;;;;;;;;;;13.80;99.90;;;;;;5093075;28;19924;-71
2021/05/30 06:46:54;;;;;;;;;;;13.80;99.90;;;;;;5092997;28;19912;-73
2021/05/30 06:49:21;;;;;;;;;;;13.90;99.90;;;;;;5093309;28;20270;-71
2021/05/30 06:51:47;;;;;;;;;;;13.90;99.90;;;;;;5093385;28;20416;-71
2021/05/30 06:54:16;;;;;;;;;;;13.90;99.90;;;;;;5093333;28;19915;-72
2021/05/30 06:56:43;;;;;;;;;;;13.90;99.90;;;;;;5093105;28;19908;-73
2021/05/30 06:59:10;;;;;;;;;;;13.90;99.90;;;;;;5093222;28;19923;-72
2021/05/30 07:01:36;;;;;;;;;;;13.90;99.90;;;;;;5093160;28;19915;-71
2021/05/30 07:04:03;;;;;;;;;;;13.90;99.90;;;;;;5092988;28;19961;-71
2021/05/30 07:06:30;;;;;;;;;;;13.90;99.90;;;;;;5080028;28;19909;-70
2021/05/30 07:08:58;;;;;;;;;;;13.90;99.90;;;;;;5072694;28;19954;-71
2021/05/30 07:11:24;;;;;;;;;;;14.00;99.90;;;;;;5072951;28;19908;-71
2021/05/30 07:13:51;;;;;;;;;;;14.00;99.90;;;;;;5072745;28;19915;-71
2021/05/30 07:16:18;;;;;;;;;;;14.00;99.90;;;;;;5072600;28;19974;-72
2021/05/30 07:18:44;;;;;;;;;;;14.00;99.90;;;;;;5072430;28;19916;-71
2021/05/30 07:21:11;;;;;;;;;;;14.00;99.90;;;;;;5072349;28;19908;-72
2021/05/30 07:23:38;;;;;;;;;;;14.00;99.90;;;;;;5072735;28;20277;-72
2021/05/30 07:26:04;;;;;;;;;;;14.00;99.90;;;;;;5072610;28;20255;-72
2021/05/30 07:28:31;;;;;;;;;;;14.10;99.90;;;;;;5072637;28;19908;-72
2021/05/30 07:30:58;;;;;;;;;;;14.10;99.90;;;;;;5072470;28;19920;-71
2021/05/30 07:33:25;;;;;;;;;;;14.10;99.90;;;;;;5072558;28;20287;-71
2021/05/30 07:35:51;;;;;;;;;;;14.10;99.90;;;;;;5072045;28;19983;-72
2021/05/30 07:38:18;;;;;;;;;;;14.10;99.90;;;;;;5072307;28;19958;-70
2021/05/30 07:40:45;;;;;;;;;;;14.10;99.90;;;;;;5072127;28;20425;-72
2021/05/30 07:43:11;;;;;;;;;;;14.10;99.90;;;;;;5072359;28;19952;-71
2021/05/30 07:45:38;;;;;;;;;;;14.10;99.90;;;;;;5072425;28;20351;-71
2021/05/30 07:48:05;;;;;;;;;;;14.10;99.90;;;;;;5072552;28;19913;-72
2021/05/30 07:50:31;;;;;;;;;;;14.10;99.90;;;;;;5071926;28;19917;-72
2021/05/30 07:52:58;;;;;;;;;;;14.20;99.90;;;;;;5072344;28;19909;-72
2021/05/30 07:55:25;;;;;;;;;;;14.20;99.90;;;;;;5072548;28;19912;-72
2021/05/30 07:57:51;;;;;;;;;;;14.20;99.90;;;;;;5075990;28;19938;-72
2021/05/30 08:00:18;;;;;;;;;;;14.10;99.90;;;;;;5076071;28;19924;-73
2021/05/30 08:02:46;;;;;;;;;;;14.10;99.90;;;;;;5075962;28;19961;-72
2021/05/30 08:05:16;;;;;;;;;;;14.10;99.90;;;;;;5075066;28;19908;-72
2021/05/30 08:07:43;;;;;;;;;;;14.10;99.90;;;;;;5075947;28;19978;-72
2021/05/30 08:10:10;;;;;;;;;;;14.10;99.90;;;;;;5075825;28;19909;-72
2021/05/30 08:12:37;;;;;;;;;;;14.10;99.90;;;;;;5075853;28;19908;-72
2021/05/30 08:15:04;;;;;;;;;;;14.10;99.90;;;;;;5075568;28;19909;-72
2021/05/30 08:17:32;;;;;;;;;;;14.10;99.90;;;;;;5075770;28;19915;-72
2021/05/30 08:19:58;;;;;;;;;;;14.10;99.90;;;;;;5074846;28;19921;-71
2021/05/30 08:22:25;;;;;;;;;;;14.10;99.90;;;;;;5075649;28;19970;-72
2021/05/30 08:24:53;;;;;;;;;;;14.10;99.90;;;;;;5075473;28;19962;-72
2021/05/30 08:27:19;;;;;;;;;;;14.10;99.90;;;;;;5075568;28;20275;-73
2021/05/30 08:29:46;;;;;;;;;;;14.00;99.90;;;;;;5074110;28;19908;-70
2021/05/30 08:32:14;;;;;;;;;;;14.00;99.90;;;;;;5073438;28;19962;-72
2021/05/30 08:34:41;;;;;;;;;;;14.00;99.90;;;;;;5073375;28;19909;-71
2021/05/30 08:37:08;;;;;;;;;;;14.00;99.90;;;;;;5073127;28;19912;-72
2021/05/30 08:39:34;;;;;;;;;;;14.00;99.90;;;;;;5073186;28;19916;-72
2021/05/30 08:42:01;;;;;;;;;;;14.00;99.90;;;;;;5073411;28;19908;-71
2021/05/30 08:44:28;;;;;;;;;;;13.90;99.90;;;;;;5072761;28;19939;-72
2021/05/30 08:46:54;;;;;;;;;;;13.90;99.90;;;;;;5072856;28;20021;-72
2021/05/30 08:49:21;;;;;;;;;;;13.90;99.90;;;;;;5073136;28;19995;-71
2021/05/30 08:51:47;;;;;;;;;;;13.90;99.90;;;;;;5072603;28;19913;-70
2021/05/30 08:54:16;;;;;;;;;;;14.00;99.90;;;;;;5072991;28;20402;-72
2021/05/30 08:56:43;;;;;;;;;;;14.00;99.90;;;;;;5072586;28;19936;-71
2021/05/30 08:59:20;;;;;;;;;;;14.00;99.90;;;;;;5072841;28;19924;-70
2021/05/30 09:01:47;;;;;;;;;;;14.00;99.90;;;;;;5073027;28;19908;-71
2021/05/30 09:04:14;;;;;;;;;;;14.00;99.90;;;;;;5072860;28;19908;-71
2021/05/30 09:06:42;;;;;;;;;;;14.00;99.90;;;;;;5071837;28;19912;-70
2021/05/30 09:09:10;;;;;;;;;;;14.00;99.90;;;;;;5072572;28;20351;-71
2021/05/30 09:11:37;;;;;;;;;;;14.10;99.90;;;;;;5072720;28;20440;-71
2021/05/30 09:14:05;;;;;;;;;;;14.00;99.90;;;;;;5072482;28;19979;-69
2021/05/30 09:16:50;;;;;;;;;;;14.00;99.90;;;;;;5072676;28;20011;-70
2021/05/30 09:19:37;;;;;;;;;;;14.00;99.90;;;;;;5073198;28;19982;-71
2021/05/30 09:22:22;;;;;;;;;;;14.00;99.90;;;;;;5087111;28;19912;-71
2021/05/30 09:24:52;;;;;;;;;;;14.00;99.90;;;;;;5087229;28;20465;-71
2021/05/30 09:27:22;;;;;;;;;;;14.00;99.90;;;;;;5087282;28;19908;-71
2021/05/30 09:30:07;;;;;;;;;;;14.00;99.90;;;;;;5085020;28;20003;-72
2021/05/30 09:32:52;;;;;;;;;;;14.00;99.90;;;;;;5107264;28;19912;-70
2021/05/30 09:35:22;;;;;;;;;;;14.00;99.90;;;;;;5074660;28;20027;-69
2021/05/30 09:37:58;;;;;;;;;;;14.00;99.90;;;;;;5110943;28;19912;-70
2021/05/30 09:40:35;;;;;;;;;;;14.00;99.90;;;;;;5073314;28;19912;-70
2021/05/30 09:43:09;;;;;;;;;;;14.00;99.90;;;;;;5072205;28;19943;-70
2021/05/30 09:45:36;;;;;;;;;;;14.00;99.90;;;;;;5072407;28;19955;-70
2021/05/30 09:48:04;;;;;;;;;;;14.00;99.90;;;;;;5072021;28;20278;-70
2021/05/30 09:50:34;;;;;;;;;;;14.00;99.90;;;;;;5072042;28;19909;-69
2021/05/30 09:53:02;;;;;;;;;;;14.00;99.90;;;;;;5104128;28;20007;-71
2021/05/30 09:55:32;;;;;;;;;;;14.00;99.90;;;;;;5071694;28;19913;-70
2021/05/30 09:58:11;;;;;;;;;;;14.00;99.90;;;;;;5071674;28;19912;-70
2021/05/30 10:00:39;;;;;;;;;;;14.00;99.90;;;;;;5071448;28;19920;-70
2021/05/30 10:03:06;;;;;;;;;;;14.00;99.90;;;;;;5071239;28;19912;-69
2021/05/30 10:05:33;;;;;;;;;;;14.00;99.90;;;;;;5071581;28;19912;-70
2021/05/30 10:08:00;;;;;;;;;;;14.00;99.90;;;;;;5071301;28;19909;-71
2021/05/30 10:10:28;;;;;;;;;;;14.10;99.90;;;;;;5071439;28;19958;-72
2021/05/30 10:12:54;;;;;;;;;;;14.00;99.90;;;;;;5071133;28;19965;-70
2021/05/30 10:15:21;;;;;;;;;;;14.00;99.90;;;;;;5070552;28;19908;-71
2021/05/30 10:17:50;;;;;;;;;;;14.00;99.90;;;;;;5071234;28;19908;-70
2021/05/30 10:20:20;;;;;;;;;;;14.00;99.90;;;;;;5071639;28;19977;-70
2021/05/30 10:22:50;;;;;;;;;;;14.00;99.90;;;;;;5071104;28;19915;-71
2021/05/30 10:25:24;;;;;;;;;;;14.00;99.90;;;;;;5071451;28;19953;-71
2021/05/30 10:28:08;;;;;;;;;;;14.00;99.90;;;;;;5070949;28;19970;-70
2021/05/30 10:30:36;;;;;;;;;;;14.00;99.90;;;;;;5070674;28;19908;-69
2021/05/30 10:33:10;;;;;;;;;;;14.00;99.90;;;;;;5071036;28;20641;-69
2021/05/30 10:35:37;;;;;;;;;;;14.00;99.90;;;;;;5071205;28;20333;-70
2021/05/30 10:38:03;;;;;;;;;;;14.00;99.90;;;;;;5071004;28;20010;-71
2021/05/30 10:40:33;;;;;;;;;;;14.00;99.90;;;;;;5070796;28;19913;-69
2021/05/30 10:43:11;;;;;;;;;;;14.00;99.90;;;;;;5070637;28;20004;-70
2021/05/30 10:45:45;;;;;;;;;;;14.00;99.90;;;;;;5070297;28;20305;-70
2021/05/30 10:48:16;;;;;;;;;;;13.90;99.90;;;;;;5103548;28;19915;-69
2021/05/30 10:53:35;;;;;;;;;;;13.80;99.90;;;;;;5070779;28;20375;-72
2021/05/30 10:56:21;;;;;;;;;;;13.80;99.90;;;;;;5070585;28;19961;-71
2021/05/30 10:59:06;;;;;;;;;;;13.70;99.90;;;;;;5070677;28;20007;-69
2021/05/30 11:04:20;;;;;;;;;;;13.60;99.90;;;;;;5070885;28;19909;-69
2021/05/30 11:06:49;;;;;;;;;;;13.50;99.90;;;;;;5070420;28;19935;-71
2021/05/30 11:09:16;;;;;;;;;;;13.50;99.90;;;;;;5070772;28;19919;-69
2021/05/30 11:11:43;;;;;;;;;;;13.50;99.90;;;;;;5070753;28;19912;-69
2021/05/30 11:14:13;;;;;;;;;;;13.40;99.90;;;;;;5081269;28;19916;-72
2021/05/30 11:16:44;;;;;;;;;;;13.40;99.90;;;;;;5090650;28;19966;-69
2021/05/30 11:19:14;;;;;;;;;;;13.40;99.90;;;;;;5090248;28;19940;-73
2021/05/30 11:21:43;;;;;;;;;;;13.40;99.90;;;;;;5090607;28;20334;-69
2021/05/30 11:24:11;;;;;;;;;;;13.30;99.90;;;;;;5090884;28;20014;-70
2021/05/30 11:26:38;;;;;;;;;;;13.30;99.90;;;;;;5090643;28;19981;-70
2021/05/30 11:29:06;;;;;;;;;;;13.30;99.90;;;;;;5090427;28;19908;-70
2021/05/30 11:31:33;;;;;;;;;;;13.20;99.90;;;;;;5094044;28;19997;-71
2021/05/30 11:34:02;;;;;;;;;;;13.20;99.90;;;;;;5093067;28;19962;-72
2021/05/30 11:36:33;;;;;;;;;;;13.10;99.90;;;;;;5094830;28;20277;-70
2021/05/30 11:39:10;;;;;;;;;;;13.20;99.90;;;;;;5093426;28;19923;-68
2021/05/30 11:41:45;;;;;;;;;;;13.10;99.90;;;;;;5094673;28;20005;-68
2021/05/30 11:44:13;;;;;;;;;;;13.10;99.90;;;;;;5094288;28;19928;-70
2021/05/30 11:46:50;;;;;;;;;;;13.00;99.90;;;;;;5094167;28;19915;-70
2021/05/30 11:49:19;;;;;;;;;;;13.00;99.90;;;;;;5094520;28;19912;-71
2021/05/30 11:51:50;;;;;;;;;;;12.90;99.90;;;;;;5094487;28;19954;-71
2021/05/30 11:54:17;;;;;;;;;;;12.90;99.90;;;;;;5094296;28;19957;-70
2021/05/30 11:56:45;;;;;;;;;;;12.80;99.90;;;;;;5094173;28;19951;-70
2021/05/30 11:59:12;;;;;;;;;;;12.80;99.90;;;;;;5093772;28;19935;-71
2021/05/30 12:01:46;;;;;;;;;;;12.80;99.90;;;;;;5094271;28;19947;-70
2021/05/30 12:04:21;;;;;;;;;;;12.70;99.90;;;;;;5094402;28;19908;-69
2021/05/30 12:06:49;;;;;;;;;;;12.70;99.90;;;;;;5093916;28;19912;-68
2021/05/30 12:09:15;;;;;;;;;;;12.70;99.90;;;;;;5091809;28;19908;-71
2021/05/30 12:11:42;;;;;;;;;;;12.60;99.90;;;;;;5093720;28;19908;-70
2021/05/30 12:14:09;;;;;;;;;;;12.60;99.90;;;;;;5093396;28;20409;-72
2021/05/30 12:16:38;;;;;;;;;;;12.60;99.90;;;;;;5094021;28;19908;-68
2021/05/30 12:19:06;;;;;;;;;;;12.60;99.90;;;;;;5093570;28;20378;-70
2021/05/30 12:21:42;;;;;;;;;;;12.60;99.90;;;;;;5093883;28;19977;-70
2021/05/30 12:24:11;;;;;;;;;;;12.50;99.90;;;;;;5093909;28;19908;-69
2021/05/30 12:26:41;;;;;;;;;;;12.60;99.90;;;;;;5093507;28;19912;-71
2021/05/30 12:29:08;;;;;;;;;;;12.60;99.90;;;;;;5092868;28;19912;-68
2021/05/30 12:31:35;;;;;;;;;;;12.70;99.90;;;;;;5093836;28;19909;-71
2021/05/30 12:34:03;;;;;;;;;;;12.70;99.90;;;;;;5093632;28;20390;-71
2021/05/30 12:36:40;;;;;;;;;;;12.70;99.90;;;;;;5093171;28;19999;-70
2021/05/30 12:39:07;;;;;;;;;;;12.70;99.90;;;;;;5093055;28;20286;-71
2021/05/30 12:41:35;;;;;;;;;;;12.70;99.90;;;;;;5092787;28;19908;-71
2021/05/30 12:44:05;;;;;;;;;;;12.60;99.90;;;;;;5093301;28;19920;-69
2021/05/30 12:46:32;;;;;;;;;;;12.70;99.90;;;;;;5093396;28;19995;-72
2021/05/30 12:49:08;;;;;;;;;;;12.70;99.90;;;;;;5093289;28;20320;-72
2021/05/30 12:51:35;;;;;;;;;;;12.70;99.90;;;;;;5093125;28;19931;-69
2021/05/30 12:54:18;;;;;;;;;;;12.70;99.90;;;;;;5093499;28;19952;-71
2021/05/30 12:56:48;;;;;;;;;;;12.60;99.90;;;;;;5093179;28;19986;-70
2021/05/30 12:59:15;;;;;;;;;;;12.70;99.90;;;;;;5093068;28;19920;-71
2021/05/30 13:01:45;;;;;;;;;;;12.60;99.90;;;;;;5093163;28;20010;-71
2021/05/30 13:04:22;;;;;;;;;;;12.60;99.90;;;;;;5092724;28;19995;-70
2021/05/30 13:06:53;;;;;;;;;;;12.60;99.90;;;;;;5092896;28;20029;-70
2021/05/30 13:09:20;;;;;;;;;;;12.70;99.90;;;;;;5092968;28;19936;-68
2021/05/30 13:11:47;;;;;;;;;;;12.60;99.90;;;;;;5093106;28;19953;-69
2021/05/30 13:14:46;;;;;;;;;;;12.60;99.90;;;;;;5092822;28;19908;-68
2021/05/30 13:17:21;;;;;;;;;;;12.60;99.90;;;;;;5080007;28;19912;-71
2021/05/30 13:20:03;;;;;;;;;;;12.50;99.90;;;;;;5092902;28;19924;-68
2021/05/30 13:22:30;;;;;;;;;;;12.40;99.90;;;;;;5092987;28;20353;-71
2021/05/30 13:24:57;;;;;;;;;;;12.40;99.90;;;;;;5092631;28;19915;-68
2021/05/30 13:27:29;;;;;;;;;;;12.40;99.90;;;;;;5092762;28;19908;-69
2021/05/30 13:30:04;;;;;;;;;;;12.30;99.90;;;;;;5092368;28;19920;-69
2021/05/30 13:32:31;;;;;;;;;;;12.30;99.90;;;;;;5092748;28;19967;-70
2021/05/30 13:34:57;;;;;;;;;;;12.30;99.90;;;;;;5092407;28;20358;-70
2021/05/30 13:37:25;;;;;;;;;;;12.30;99.90;;;;;;5092545;28;20355;-70
2021/05/30 13:39:54;;;;;;;;;;;12.40;99.90;;;;;;5092619;28;19916;-71
2021/05/30 13:42:20;;;;;;;;;;;12.30;99.90;;;;;;5092429;28;20003;-70
2021/05/30 13:44:47;;;;;;;;;;;12.40;99.90;;;;;;5091540;28;19920;-71
2021/05/30 13:47:14;;;;;;;;;;;12.40;99.90;;;;;;5092482;28;19954;-71
2021/05/30 13:49:40;;;;;;;;;;;12.30;99.90;;;;;;5092409;28;19919;-71
2021/05/30 13:52:07;;;;;;;;;;;12.30;99.90;;;;;;5092288;28;19912;-70
2021/05/30 13:54:34;;;;;;;;;;;12.30;99.90;;;;;;5092314;28;20007;-71
2021/05/30 13:57:01;;;;;;;;;;;12.20;99.90;;;;;;5091619;28;20414;-70
2021/05/30 13:59:27;;;;;;;;;;;12.20;99.90;;;;;;5091850;28;19920;-70
2021/05/30 14:01:54;;;;;;;;;;;12.20;99.90;;;;;;5092022;28;19927;-70
2021/05/30 14:04:21;;;;;;;;;;;12.20;99.90;;;;;;5091899;28;19908;-71
2021/05/30 14:06:48;;;;;;;;;;;12.20;99.90;;;;;;5091520;28;19912;-70
2021/05/30 14:09:15;;;;;;;;;;;12.20;99.90;;;;;;5094019;28;19908;-70
2021/05/30 14:11:41;;;;;;;;;;;12.30;99.90;;;;;;5093980;28;20378;-70
2021/05/30 14:14:08;;;;;;;;;;;12.30;99.90;;;;;;5093796;28;20366;-69
2021/05/30 14:16:35;;;;;;;;;;;12.30;99.90;;;;;;5093836;28;20002;-69
2021/05/30 14:19:02;;;;;;;;;;;12.30;99.90;;;;;;5093545;28;20014;-71
2021/05/30 14:21:29;;;;;;;;;;;12.40;99.90;;;;;;5095317;28;19915;-69
2021/05/30 14:23:56;;;;;;;;;;;12.40;99.90;;;;;;5095323;28;19931;-71
2021/05/30 14:26:23;;;;;;;;;;;12.40;99.90;;;;;;5094409;28;19977;-70
2021/05/30 14:28:49;;;;;;;;;;;12.40;99.90;;;;;;5093352;28;20002;-71